Zion National Park, Utah
Current Conditions -  °F | °C
As of 3:35 PM on Wednesday 22 Oct 2014 (Local Time) from KAZC Reporting Station
Clear Clear  
Wind Chill: 75°   Ceiling: Unl
Heat Index: 75°   Visibility: 10mi
Dew Point: 32°   Wind: 3mph
Humidity: 21%   Direction: 290°WNW
Pressure: 30.15"   Gusts: NA
Location:  37.1888°N, 113°W
Report Text: KAZC 222135Z AUTO 29003KT 10SM CLR 24/00 A3015 RMK AO2 T02390001
Loading
Personal Weather Stations






























Interactive Weather Map
Tropical Storm Tracking
New forecast layout! Learn more

10-Day Weather Forecast

Advertisements
Track Severe Weather on mobile